Time;durP1;ratioP1;P1;durP2;ratioP2;P2;SDS_P1;SDS_P2;PMS_P1;PMS_P2;Temp;Humidity;BMP_temperature;BMP_pressure;BME280_temperature;BME280_humidity;BME280_pressure;Samples;Min_cycle;Max_cycle;Signal;HPM_P1;HPM_P2
2020/12/12 00:01:14;;;;;;;31.77;19.05;;;22.00;32.80;;;;;;6152488;28;83248;-59
2020/12/12 00:04:15;;;;;;;32.58;19.88;;;22.00;32.90;;;;;;6165284;28;83574;-59
2020/12/12 00:07:15;;;;;;;32.60;20.52;;;22.00;32.80;;;;;;6165382;28;85309;-59
2020/12/12 00:10:16;;;;;;;31.15;20.20;;;22.00;32.80;;;;;;6177988;27;83237;-59
2020/12/12 00:13:17;;;;;;;34.53;20.02;;;22.00;32.70;;;;;;6168206;28;83510;-59
2020/12/12 00:16:17;;;;;;;34.13;19.83;;;22.00;32.70;;;;;;6173383;27;83642;-59
2020/12/12 00:19:18;;;;;;;31.83;19.60;;;22.00;32.60;;;;;;6168307;28;84093;-58
2020/12/12 00:22:18;;;;;;;37.20;21.35;;;22.00;32.70;;;;;;6172527;28;83414;-59
2020/12/12 00:25:19;;;;;;;34.25;20.50;;;22.00;32.60;;;;;;6175775;28;83758;-59
2020/12/12 00:28:19;;;;;;;35.72;20.88;;;22.00;32.70;;;;;;6163647;27;83201;-60
2020/12/12 00:31:20;;;;;;;32.65;20.45;;;22.00;32.60;;;;;;6167189;28;83722;-59
2020/12/12 00:34:20;;;;;;;30.35;19.17;;;22.00;32.50;;;;;;6176048;27;82995;-59
2020/12/12 00:37:21;;;;;;;33.72;20.73;;;22.00;32.50;;;;;;6183003;28;83501;-60
2020/12/12 00:40:21;;;;;;;32.60;20.10;;;22.00;32.50;;;;;;6164957;27;85669;-60
2020/12/12 00:43:22;;;;;;;37.85;21.00;;;21.90;32.40;;;;;;6174170;28;89522;-59
2020/12/12 00:46:23;;;;;;;35.47;20.77;;;21.90;32.50;;;;;;6177270;28;90383;-59
2020/12/12 00:49:23;;;;;;;32.45;19.88;;;21.90;32.40;;;;;;6182015;28;83578;-60
2020/12/12 00:55:48;;;;;;;34.97;20.88;;;21.90;32.30;;;;;;6176940;28;83397;-59
2020/12/12 00:58:49;;;;;;;34.75;21.10;;;21.90;32.40;;;;;;6172508;28;84355;-60
2020/12/12 01:01:49;;;;;;;37.63;20.55;;;21.90;32.40;;;;;;6184745;28;83145;-59
2020/12/12 01:04:50;;;;;;;38.38;20.50;;;21.90;32.40;;;;;;6182610;27;83494;-59
2020/12/12 01:07:50;;;;;;;33.95;21.02;;;21.90;32.40;;;;;;6183398;28;84112;-59
2020/12/12 01:10:51;;;;;;;35.03;19.95;;;21.90;32.50;;;;;;6180660;28;84210;-59
2020/12/12 01:13:52;;;;;;;33.15;20.77;;;21.90;32.40;;;;;;6176206;28;83790;-59
2020/12/12 01:16:52;;;;;;;36.70;19.50;;;21.90;32.40;;;;;;6187575;28;83290;-59
2020/12/12 01:19:53;;;;;;;33.17;19.67;;;21.90;32.50;;;;;;6160427;28;83203;-59
2020/12/12 01:22:53;;;;;;;36.45;20.00;;;21.80;32.50;;;;;;6147787;28;86113;-59
2020/12/12 01:25:54;;;;;;;32.70;19.73;;;21.80;32.40;;;;;;6156965;28;83017;-59
2020/12/12 01:28:54;;;;;;;32.92;18.80;;;21.80;32.60;;;;;;6145753;28;83463;-59
2020/12/12 01:31:55;;;;;;;35.20;19.80;;;21.80;32.60;;;;;;6168766;28;83400;-59
2020/12/12 01:34:55;;;;;;;31.65;19.02;;;21.80;32.60;;;;;;6185269;28;83420;-59
2020/12/12 01:37:56;;;;;;;33.53;18.05;;;21.80;32.60;;;;;;6174221;28;83358;-59
2020/12/12 01:40:56;;;;;;;29.77;18.35;;;21.80;32.80;;;;;;6182356;28;84107;-59
2020/12/12 01:43:57;;;;;;;31.80;19.15;;;21.80;32.80;;;;;;6190520;27;85843;-59
2020/12/12 01:46:57;;;;;;;34.05;19.52;;;21.80;32.90;;;;;;6187124;28;83315;-59
2020/12/12 01:49:58;;;;;;;29.83;17.75;;;21.80;33.00;;;;;;6182014;28;83721;-58
2020/12/12 01:52:58;;;;;;;32.08;17.17;;;21.80;33.60;;;;;;6184569;28;83135;-59
2020/12/12 01:55:59;;;;;;;29.08;18.10;;;21.80;32.90;;;;;;6179315;28;84554;-59
2020/12/12 01:58:59;;;;;;;30.05;18.45;;;21.80;33.00;;;;;;6175580;28;83556;-59
2020/12/12 02:02:00;;;;;;;32.70;18.45;;;21.80;32.90;;;;;;6163569;28;83293;-59
2020/12/12 02:05:00;;;;;;;31.23;18.90;;;21.80;32.90;;;;;;6178825;27;83523;-59
2020/12/12 02:08:01;;;;;;;33.92;19.55;;;21.80;32.80;;;;;;6181784;28;83523;-59
2020/12/12 02:11:01;;;;;;;33.35;18.48;;;21.80;32.80;;;;;;6189619;27;83259;-59
2020/12/12 02:14:02;;;;;;;34.03;19.50;;;21.80;32.80;;;;;;6176119;28;84788;-61
2020/12/12 02:17:03;;;;;;;30.55;17.70;;;21.80;33.00;;;;;;6159737;28;83905;-59
2020/12/12 02:20:04;;;;;;;33.10;19.90;;;21.80;32.90;;;;;;6155311;28;83465;-60
2020/12/12 02:23:04;;;;;;;34.28;17.98;;;21.80;32.70;;;;;;6180402;27;83071;-60
2020/12/12 02:26:05;;;;;;;34.25;17.35;;;21.80;32.70;;;;;;6180222;28;82850;-59
2020/12/12 02:29:05;;;;;;;28.40;18.08;;;21.80;32.60;;;;;;6179345;28;85772;-60
2020/12/12 02:32:06;;;;;;;32.47;18.17;;;21.80;32.60;;;;;;6176203;28;83319;-60
2020/12/12 02:35:07;;;;;;;32.20;18.38;;;21.80;32.70;;;;;;6178062;28;83332;-59
2020/12/12 02:38:07;;;;;;;29.67;15.90;;;21.80;32.80;;;;;;6183983;28;84653;-59
2020/12/12 02:41:08;;;;;;;29.55;18.00;;;21.80;32.90;;;;;;6182975;28;83195;-59
2020/12/12 02:44:08;;;;;;;25.70;16.33;;;21.80;33.00;;;;;;6178370;28;84000;-59
2020/12/12 02:47:09;;;;;;;28.25;16.92;;;21.80;33.00;;;;;;6182259;27;85695;-59
2020/12/12 02:50:10;;;;;;;29.40;17.20;;;21.80;33.10;;;;;;6178527;28;83280;-59
2020/12/12 02:53:11;;;;;;;24.88;15.90;;;21.80;33.00;;;;;;6182184;27;83893;-60
2020/12/12 02:56:11;;;;;;;26.10;16.05;;;21.80;33.10;;;;;;6182587;28;83210;-60
2020/12/12 02:59:12;;;;;;;26.38;15.40;;;21.80;33.20;;;;;;6179960;27;89558;-60
2020/12/12 03:02:12;;;;;;;27.05;16.58;;;21.80;33.20;;;;;;6179889;28;83711;-60
2020/12/12 03:05:13;;;;;;;23.55;14.75;;;21.80;33.20;;;;;;6176571;28;83337;-60
2020/12/12 03:08:13;;;;;;;24.10;14.90;;;21.80;33.10;;;;;;6180721;27;85693;-60
2020/12/12 03:11:14;;;;;;;24.60;15.10;;;21.80;33.10;;;;;;6181686;28;83843;-60
2020/12/12 03:14:14;;;;;;;23.08;14.75;;;21.80;33.20;;;;;;6189496;28;85468;-60
2020/12/12 03:17:15;;;;;;;24.90;15.88;;;21.80;33.20;;;;;;6168792;28;83584;-60
2020/12/12 03:20:15;;;;;;;24.33;14.38;;;21.80;33.20;;;;;;6186676;27;84472;-60
2020/12/12 03:23:16;;;;;;;25.85;14.80;;;21.80;33.20;;;;;;6180281;28;83307;-60
2020/12/12 03:26:16;;;;;;;23.48;14.02;;;21.80;33.10;;;;;;6177768;27;83576;-60
2020/12/12 03:29:17;;;;;;;25.73;15.32;;;21.80;33.80;;;;;;6184622;28;84035;-60
2020/12/12 03:32:17;;;;;;;21.60;14.57;;;21.70;33.10;;;;;;6160494;27;83682;-60
2020/12/12 03:35:18;;;;;;;22.30;14.07;;;21.80;33.20;;;;;;6157298;28;83314;-60
2020/12/12 03:38:18;;;;;;;24.55;14.63;;;21.70;33.20;;;;;;6174754;28;83280;-60
2020/12/12 03:41:19;;;;;;;27.35;15.52;;;21.80;33.20;;;;;;6183939;28;83029;-59
2020/12/12 03:44:19;;;;;;;23.38;14.73;;;21.70;33.20;;;;;;6176807;28;84093;-60
2020/12/12 03:47:20;;;;;;;25.52;15.00;;;21.70;33.30;;;;;;6155885;27;83368;-60
2020/12/12 03:50:27;;;;;;;24.08;14.77;;;21.70;33.30;;;;;;6150463;28;85561;-60
2020/12/12 03:53:28;;;;;;;25.10;14.93;;;21.70;33.20;;;;;;6159579;28;83063;-60
2020/12/12 03:56:28;;;;;;;27.10;15.45;;;21.70;33.10;;;;;;6175183;28;83384;-60
2020/12/12 03:59:29;;;;;;;26.92;15.70;;;21.70;33.10;;;;;;6177229;28;83754;-60
2020/12/12 04:02:29;;;;;;;23.45;14.63;;;21.70;33.10;;;;;;6185535;28;82979;-63
2020/12/12 04:05:30;;;;;;;24.73;14.77;;;21.70;33.10;;;;;;6183421;28;83371;-60
2020/12/12 04:08:30;;;;;;;25.40;15.18;;;21.70;33.10;;;;;;6179716;28;86699;-60
2020/12/12 04:11:31;;;;;;;28.70;15.10;;;21.70;33.00;;;;;;6175351;27;83604;-60
2020/12/12 04:14:31;;;;;;;26.98;14.63;;;21.70;33.00;;;;;;6175510;28;84696;-60
2020/12/12 04:17:32;;;;;;;23.88;14.85;;;21.70;33.00;;;;;;6178566;27;83180;-60
2020/12/12 04:20:32;;;;;;;23.33;14.05;;;21.70;32.90;;;;;;6179338;28;83471;-60
2020/12/12 04:23:33;;;;;;;26.77;15.55;;;21.70;32.90;;;;;;6178367;28;83184;-60
2020/12/12 04:26:33;;;;;;;25.58;15.35;;;21.70;32.90;;;;;;6179257;28;84265;-60
2020/12/12 04:29:34;;;;;;;24.15;14.60;;;21.70;32.80;;;;;;6171489;28;86006;-60
2020/12/12 04:32:34;;;;;;;26.27;15.40;;;21.70;32.80;;;;;;6178408;28;84026;-60
2020/12/12 04:35:35;;;;;;;26.17;15.10;;;21.70;32.90;;;;;;6175996;27;83479;-60
2020/12/12 04:38:36;;;;;;;24.83;14.40;;;21.70;32.90;;;;;;6183928;28;88044;-60
2020/12/12 04:41:37;;;;;;;25.10;14.75;;;21.70;32.80;;;;;;6176531;28;83293;-60
2020/12/12 04:44:37;;;;;;;26.60;15.43;;;21.70;32.80;;;;;;6177217;28;84034;-60
2020/12/12 04:47:38;;;;;;;28.23;15.35;;;21.70;32.90;;;;;;6170752;28;84215;-60
2020/12/12 04:50:38;;;;;;;26.50;15.18;;;21.70;32.90;;;;;;6183551;28;82987;-60
2020/12/12 04:53:39;;;;;;;23.67;14.93;;;21.70;33.00;;;;;;6178693;28;83840;-59
2020/12/12 04:56:39;;;;;;;24.88;14.93;;;21.70;33.00;;;;;;6174591;27;83637;-60
2020/12/12 04:59:40;;;;;;;23.33;14.60;;;21.70;33.10;;;;;;6177280;28;84008;-60
2020/12/12 05:02:40;;;;;;;23.80;14.95;;;21.70;33.10;;;;;;6153800;28;87726;-58
2020/12/12 05:05:41;;;;;;;22.50;14.77;;;21.70;33.10;;;;;;6175846;28;83968;-59
2020/12/12 05:08:41;;;;;;;20.20;12.85;;;21.70;33.20;;;;;;6182439;28;83772;-60
2020/12/12 05:11:42;;;;;;;20.65;12.88;;;21.80;37.00;;;;;;6186726;27;85229;-59
2020/12/12 05:14:42;;;;;;;20.55;12.77;;;21.90;36.10;;;;;;6176080;28;83309;-60
2020/12/12 05:17:43;;;;;;;24.80;13.20;;;21.90;35.10;;;;;;6172474;27;83311;-60
2020/12/12 05:20:43;;;;;;;18.48;12.48;;;22.00;34.70;;;;;;6166980;28;84373;-60
2020/12/12 05:23:44;;;;;;;23.20;13.68;;;22.00;34.70;;;;;;6174714;27;84765;-60
2020/12/12 05:26:44;;;;;;;27.42;14.02;;;22.10;34.50;;;;;;6174237;28;83065;-60
2020/12/12 05:29:45;;;;;;;20.40;13.10;;;22.10;34.30;;;;;;6172584;28;89808;-61
2020/12/12 05:32:46;;;;;;;21.08;12.90;;;22.20;34.70;;;;;;6173137;27;83951;-63
2020/12/12 05:35:47;;;;;;;19.40;11.52;;;22.20;35.30;;;;;;6171676;28;84025;-61
2020/12/12 05:38:47;;;;;;;16.77;9.95;;;22.20;36.30;;;;;;6165751;27;83557;-60
2020/12/12 05:41:48;;;;;;;13.85;8.55;;;22.20;36.50;;;;;;6178036;28;82858;-61
2020/12/12 05:44:48;;;;;;;11.30;7.25;;;22.20;37.20;;;;;;6182956;28;80992;-61
2020/12/12 05:47:49;;;;;;;13.18;7.60;;;22.20;38.60;;;;;;6175481;28;80757;-59
2020/12/12 05:50:49;;;;;;;12.38;7.80;;;22.20;39.00;;;;;;6174419;28;81345;-59
2020/12/12 05:53:50;;;;;;;11.23;6.40;;;22.20;39.40;;;;;;6155165;28;81918;-59
2020/12/12 05:56:50;;;;;;;10.95;6.00;;;22.20;39.70;;;;;;6188102;28;81557;-59
2020/12/12 05:59:51;;;;;;;11.15;6.97;;;22.20;39.80;;;;;;6181060;28;81369;-61
2020/12/12 06:02:51;;;;;;;11.57;5.95;;;22.20;39.20;;;;;;6148923;28;80771;-61
2020/12/12 06:05:52;;;;;;;9.88;5.75;;;22.20;39.70;;;;;;6147234;28;80614;-65
2020/12/12 06:08:52;;;;;;;40.60;6.97;;;22.30;40.00;;;;;;6156136;28;80407;-62
2020/12/12 06:11:53;;;;;;;10.88;6.40;;;22.30;40.70;;;;;;6185164;28;81400;-60
2020/12/12 06:14:54;;;;;;;10.45;6.65;;;22.30;40.60;;;;;;6150935;28;80957;-61
2020/12/12 06:17:54;;;;;;;9.57;6.50;;;22.30;41.20;;;;;;6155243;28;80305;-61
2020/12/12 06:20:55;;;;;;;10.10;6.38;;;22.40;41.60;;;;;;6177283;28;81546;-61
2020/12/12 06:23:58;;;;;;;9.00;5.95;;;22.40;41.30;;;;;;6188437;27;80568;-62
2020/12/12 06:26:59;;;;;;;10.23;6.22;;;22.50;41.50;;;;;;6186417;28;81066;-62
2020/12/12 06:29:59;;;;;;;10.93;6.10;;;22.50;41.40;;;;;;6180586;28;80902;-61
2020/12/12 06:33:00;;;;;;;9.23;6.07;;;22.40;41.40;;;;;;6151715;28;80258;-63
2020/12/12 06:36:00;;;;;;;9.55;5.97;;;22.40;42.10;;;;;;6177678;28;80693;-62
2020/12/12 06:39:01;;;;;;;10.32;6.45;;;22.40;41.80;;;;;;6175915;28;80959;-63
2020/12/12 06:42:01;;;;;;;9.05;5.80;;;22.40;41.80;;;;;;6136826;28;81059;-63
2020/12/12 06:45:02;;;;;;;8.60;5.63;;;22.40;42.00;;;;;;6173712;27;80451;-63
2020/12/12 06:48:02;;;;;;;8.48;5.68;;;22.40;42.00;;;;;;6175051;28;80770;-62
2020/12/12 06:51:03;;;;;;;7.47;5.03;;;22.30;42.10;;;;;;6177905;27;80653;-65
2020/12/12 06:54:03;;;;;;;7.60;5.65;;;22.30;42.30;;;;;;6174535;28;83919;-64
2020/12/12 06:57:04;;;;;;;8.52;5.40;;;22.30;42.60;;;;;;6174826;28;80689;-64
2020/12/12 07:00:04;;;;;;;9.57;5.72;;;22.40;41.90;;;;;;6174282;28;81213;-63
2020/12/12 07:03:05;;;;;;;10.07;6.57;;;22.40;42.20;;;;;;6177007;27;80721;-64
2020/12/12 07:06:06;;;;;;;11.98;7.00;;;22.40;41.10;;;;;;6174201;28;82178;-62
2020/12/12 07:09:06;;;;;;;12.07;7.50;;;22.40;40.90;;;;;;6164046;27;81562;-62
2020/12/12 07:12:07;;;;;;;14.55;6.90;;;22.40;40.40;;;;;;6168818;28;80445;-61
2020/12/12 07:15:07;;;;;;;13.63;7.55;;;22.40;39.90;;;;;;6166658;28;80412;-61
2020/12/12 07:18:08;;;;;;;15.82;8.27;;;22.40;39.50;;;;;;6155577;28;81134;-62
2020/12/12 07:21:08;;;;;;;13.13;8.50;;;22.30;39.10;;;;;;6174057;28;80612;-61
2020/12/12 07:24:09;;;;;;;13.70;7.97;;;22.30;39.00;;;;;;6171418;28;81565;-62
2020/12/12 07:27:09;;;;;;;14.52;8.25;;;22.20;38.50;;;;;;6154849;28;80569;-62
2020/12/12 07:30:10;;;;;;;13.25;8.18;;;22.20;38.30;;;;;;6179558;27;81461;-62
2020/12/12 07:33:10;;;;;;;16.00;9.25;;;22.20;37.60;;;;;;6178528;28;82264;-63
2020/12/12 07:36:11;;;;;;;14.85;9.20;;;22.20;37.60;;;;;;6171877;27;80529;-62
2020/12/12 07:39:11;;;;;;;18.77;9.93;;;22.20;36.80;;;;;;6183193;28;81018;-62
2020/12/12 07:42:12;;;;;;;13.40;9.00;;;22.20;37.10;;;;;;6192069;28;80952;-62
2020/12/12 07:45:22;;;;;;;13.90;8.77;;;22.20;37.60;;;;;;6191662;28;80724;-63
2020/12/12 07:48:23;;;;;;;15.02;9.52;;;22.20;37.10;;;;;;6191261;27;81911;-64
2020/12/12 07:51:24;;;;;;;19.30;8.40;;;22.20;37.10;;;;;;6178887;28;80382;-62
2020/12/12 07:54:24;;;;;;;22.08;9.85;;;22.20;37.20;;;;;;6180274;28;80391;-63
2020/12/12 07:57:25;;;;;;;20.23;9.57;;;22.20;37.40;;;;;;6173334;28;83454;-62
2020/12/12 08:00:25;;;;;;;13.88;9.13;;;22.20;37.20;;;;;;6154137;28;81185;-62
2020/12/12 08:03:26;;;;;;;13.18;8.45;;;22.20;36.90;;;;;;6153785;28;80831;-62
2020/12/12 08:06:27;;;;;;;15.32;9.70;;;22.20;36.70;;;;;;6161781;28;80636;-64
2020/12/12 08:09:27;;;;;;;12.73;9.02;;;22.20;36.60;;;;;;6176347;28;83317;-64
2020/12/12 08:12:34;;;;;;;17.95;9.75;;;22.30;36.60;;;;;;6179227;27;81661;-64
2020/12/12 08:15:39;;;;;;;14.13;9.55;;;22.30;36.50;;;;;;6176898;28;80530;-62
2020/12/12 08:18:39;;;;;;;15.40;10.07;;;22.30;36.30;;;;;;6177354;27;80783;-63
2020/12/12 08:21:40;;;;;;;17.27;10.10;;;22.20;36.20;;;;;;6175816;28;83165;-62
2020/12/12 08:24:42;;;;;;;16.08;9.50;;;22.30;36.40;;;;;;6176425;28;83932;-63
2020/12/12 08:27:43;;;;;;;13.75;8.90;;;22.30;36.30;;;;;;6179305;28;82885;-64
2020/12/12 08:30:43;;;;;;;14.55;9.23;;;22.30;36.50;;;;;;6176352;28;81932;-64
2020/12/12 08:33:44;;;;;;;15.40;10.05;;;22.30;36.10;;;;;;6177168;28;80951;-64
2020/12/12 08:36:44;;;;;;;19.60;9.63;;;22.30;36.10;;;;;;6157306;28;83139;-64
2020/12/12 08:39:45;;;;;;;17.70;9.35;;;22.30;36.10;;;;;;6167694;28;83919;-65
2020/12/12 08:42:45;;;;;;;15.32;9.85;;;22.30;36.00;;;;;;6189925;28;80694;-65
2020/12/12 08:45:46;;;;;;;14.30;9.35;;;22.30;35.80;;;;;;6192976;28;82164;-66
2020/12/12 08:48:46;;;;;;;16.27;9.65;;;22.40;35.80;;;;;;6170776;28;80484;-67
2020/12/12 08:51:47;;;;;;;15.20;9.98;;;22.30;35.30;;;;;;6163039;28;80822;-66
2020/12/12 08:54:47;;;;;;;16.70;10.25;;;22.30;35.50;;;;;;6181730;28;83252;-67
2020/12/12 08:57:48;;;;;;;13.38;9.45;;;22.30;35.30;;;;;;6183709;28;84261;-65
2020/12/12 09:00:48;;;;;;;15.70;10.18;;;22.30;35.40;;;;;;6161885;28;84093;-66
2020/12/12 09:03:49;;;;;;;17.80;10.85;;;22.30;35.40;;;;;;6161076;28;83255;-64
2020/12/12 09:06:49;;;;;;;14.73;10.07;;;22.40;35.30;;;;;;6150237;28;85745;-65
2020/12/12 09:09:50;;;;;;;22.95;10.27;;;22.30;34.90;;;;;;6159227;28;83433;-65
2020/12/12 09:12:50;;;;;;;15.63;10.07;;;22.30;35.30;;;;;;6173244;28;83290;-67
2020/12/12 09:15:51;;;;;;;14.40;10.55;;;22.30;35.20;;;;;;6172012;28;83590;-68
2020/12/12 09:18:52;;;;;;;15.65;10.65;;;22.40;35.00;;;;;;6174809;28;83407;-66
2020/12/12 09:21:52;;;;;;;19.50;10.68;;;22.40;34.90;;;;;;6171202;27;84075;-67
2020/12/12 09:24:53;;;;;;;17.58;10.30;;;22.40;35.00;;;;;;6168090;28;83629;-68
2020/12/12 09:27:53;;;;;;;16.80;11.48;;;22.40;35.50;;;;;;6172299;27;83289;-67
2020/12/12 09:30:54;;;;;;;16.48;11.25;;;22.40;34.90;;;;;;6174133;28;83989;-67
2020/12/12 09:33:54;;;;;;;16.80;10.85;;;22.40;35.00;;;;;;6164792;28;84000;-67
2020/12/12 09:36:55;;;;;;;17.48;11.70;;;22.40;35.10;;;;;;6160419;28;85748;-68
2020/12/12 09:39:55;;;;;;;17.70;11.50;;;22.40;34.90;;;;;;6173556;28;84519;-66
2020/12/12 09:42:56;;;;;;;18.75;12.13;;;22.40;34.70;;;;;;6171822;28;85772;-67
2020/12/12 09:45:56;;;;;;;21.52;12.50;;;22.40;34.70;;;;;;6175061;27;85300;-67
2020/12/12 09:48:58;;;;;;;20.67;11.80;;;22.30;34.80;;;;;;6170518;28;83505;-66
2020/12/12 09:51:58;;;;;;;17.55;11.60;;;22.30;34.70;;;;;;6171133;27;82951;-66
2020/12/12 09:54:59;;;;;;;17.33;11.65;;;22.30;34.70;;;;;;6173292;28;83553;-67
2020/12/12 09:57:59;;;;;;;18.35;12.38;;;22.30;34.70;;;;;;6175439;28;85286;-67
2020/12/12 10:01:00;;;;;;;18.90;11.82;;;22.30;34.60;;;;;;6159671;28;83077;-68
2020/12/12 10:04:00;;;;;;;18.48;11.52;;;22.30;34.90;;;;;;6147533;28;83971;-68
2020/12/12 10:07:01;;;;;;;20.48;11.73;;;22.20;35.60;;;;;;6150996;28;86165;-67
2020/12/12 10:10:02;;;;;;;17.42;11.07;;;22.30;36.40;;;;;;6158273;28;83723;-67
2020/12/12 10:13:02;;;;;;;17.35;11.18;;;22.30;36.60;;;;;;6172971;28;86039;-68
2020/12/12 10:16:03;;;;;;;21.50;11.00;;;22.30;37.40;;;;;;6173042;28;82873;-67
2020/12/12 10:19:03;;;;;;;20.50;11.48;;;22.30;37.90;;;;;;6173992;28;83597;-66
2020/12/12 10:22:04;;;;;;;18.30;10.80;;;22.40;37.90;;;;;;6173212;28;85814;-66
2020/12/12 10:25:04;;;;;;;19.35;12.20;;;22.50;38.10;;;;;;6173027;28;82735;-67
2020/12/12 10:28:05;;;;;;;18.30;11.88;;;22.50;37.20;;;;;;6185099;28;83367;-67
2020/12/12 10:31:05;;;;;;;23.27;11.50;;;22.60;37.20;;;;;;6184498;27;85621;-65
2020/12/12 10:34:06;;;;;;;25.80;11.80;;;22.60;36.70;;;;;;6181092;28;83258;-65
2020/12/12 10:37:06;;;;;;;18.25;11.68;;;22.70;36.50;;;;;;6183716;28;84196;-66
2020/12/12 10:40:14;;;;;;;18.10;11.68;;;22.70;36.40;;;;;;6183832;28;83244;-66
2020/12/12 10:43:15;;;;;;;19.77;12.15;;;22.80;36.00;;;;;;6185650;28;83349;-66
2020/12/12 10:46:15;;;;;;;20.30;11.65;;;22.80;35.70;;;;;;6165859;28;86288;-66
2020/12/12 10:49:16;;;;;;;19.90;11.88;;;22.80;35.30;;;;;;6147460;28;83676;-66
2020/12/12 10:52:16;;;;;;;19.58;12.65;;;22.80;35.20;;;;;;6150543;28;84554;-65
2020/12/12 10:55:17;;;;;;;20.52;11.82;;;22.90;35.80;;;;;;6162338;28;83431;-65
2020/12/12 10:58:17;;;;;;;21.67;12.32;;;22.90;35.90;;;;;;6154080;28;84189;-65
2020/12/12 11:01:18;;;;;;;57.63;15.10;;;22.90;36.30;;;;;;6152907;28;84120;-66
2020/12/12 11:04:18;;;;;;;28.00;14.27;;;23.00;36.70;;;;;;6155326;27;83408;-67
2020/12/12 11:07:19;;;;;;;29.08;14.68;;;23.00;37.30;;;;;;6155349;28;83692;-64
2020/12/12 11:10:20;;;;;;;25.88;15.38;;;23.00;37.40;;;;;;6161269;28;83463;-67
2020/12/12 11:13:20;;;;;;;60.47;15.52;;;23.00;37.50;;;;;;6164296;28;83838;-66
2020/12/12 11:16:21;;;;;;;33.17;15.00;;;23.00;37.60;;;;;;6144150;28;82957;-66
2020/12/12 11:19:21;;;;;;;31.88;16.10;;;23.00;38.40;;;;;;6140467;28;84479;-66
2020/12/12 11:22:22;;;;;;;32.40;16.35;;;22.90;38.80;;;;;;6143049;28;83479;-67
2020/12/12 11:25:22;;;;;;;31.90;15.63;;;23.00;38.90;;;;;;6150531;28;85188;-67
2020/12/12 11:28:23;;;;;;;29.05;16.52;;;23.00;39.80;;;;;;6157073;28;83783;-66
2020/12/12 11:31:24;;;;;;;28.60;14.88;;;23.00;39.60;;;;;;6166404;28;83445;-66
2020/12/12 11:37:36;;;;;;;26.10;15.57;;;23.00;40.00;;;;;;6165418;28;85949;-66
2020/12/12 11:41:12;;;;;;;33.47;15.38;;;23.00;40.70;;;;;;6165773;27;83578;-66
2020/12/12 11:47:13;;;;;;;36.97;16.25;;;23.00;39.80;;;;;;6171705;28;85793;-66
2020/12/12 11:50:14;;;;;;;29.30;15.55;;;22.90;40.90;;;;;;6156578;28;83331;-67
2020/12/12 11:53:14;;;;;;;28.58;15.75;;;22.90;40.10;;;;;;6149985;28;84140;-67
2020/12/12 11:56:17;;;;;;;31.45;16.88;;;22.90;41.20;;;;;;6152028;28;83503;-68
2020/12/12 11:59:17;;;;;;;27.80;16.00;;;22.80;41.20;;;;;;6172675;28;83423;-65
2020/12/12 12:02:18;;;;;;;29.42;16.38;;;22.90;41.20;;;;;;6182273;28;83578;-67
2020/12/12 12:05:18;;;;;;;29.35;17.20;;;22.80;40.80;;;;;;6176727;28;83641;-67
2020/12/12 12:11:32;;;;;;;29.95;17.75;;;22.80;41.70;;;;;;6177476;28;83640;-66
2020/12/12 12:14:32;;;;;;;27.38;16.52;;;22.70;42.10;;;;;;6166881;28;84775;-65
2020/12/12 12:17:33;;;;;;;29.23;16.88;;;22.80;42.70;;;;;;6176757;28;83643;-61
2020/12/12 12:20:33;;;;;;;24.40;15.77;;;22.80;42.10;;;;;;6163157;28;83407;-64
2020/12/12 12:23:34;;;;;;;24.33;15.07;;;22.70;40.40;;;;;;6177405;28;83338;-62
2020/12/12 12:26:35;;;;;;;24.98;15.55;;;22.80;39.80;;;;;;6172630;28;84917;-62
2020/12/12 12:29:35;;;;;;;26.33;15.68;;;22.70;39.20;;;;;;6162836;28;84004;-64
2020/12/12 12:32:36;;;;;;;25.52;14.05;;;22.70;38.90;;;;;;6161695;27;83616;-64
2020/12/12 12:35:36;;;;;;;24.08;15.00;;;22.70;38.20;;;;;;6165911;28;84172;-64
2020/12/12 12:38:37;;;;;;;24.00;15.20;;;22.70;38.20;;;;;;6147653;28;83321;-64
2020/12/12 12:41:37;;;;;;;27.58;15.38;;;22.70;38.00;;;;;;6165936;28;83340;-64
2020/12/12 12:44:38;;;;;;;26.63;15.48;;;22.70;37.60;;;;;;6166982;27;83797;-63
2020/12/12 12:47:38;;;;;;;22.45;13.48;;;22.70;37.40;;;;;;6165236;28;83062;-64
2020/12/12 12:50:41;;;;;;;22.33;13.73;;;22.70;37.20;;;;;;6165055;27;84358;-64
2020/12/12 12:53:42;;;;;;;21.42;13.82;;;22.70;37.00;;;;;;6162260;28;86269;-65
2020/12/12 12:56:44;;;;;;;20.90;13.68;;;22.60;36.80;;;;;;6159183;28;82931;-63
2020/12/12 12:59:44;;;;;;;23.42;13.68;;;22.60;36.60;;;;;;6172780;28;83946;-63
2020/12/12 13:02:45;;;;;;;22.65;14.73;;;22.60;36.40;;;;;;6170882;28;83434;-62
2020/12/12 13:05:45;;;;;;;24.83;13.65;;;22.60;36.40;;;;;;6173341;27;88981;-61
2020/12/12 13:08:46;;;;;;;20.45;13.13;;;22.60;36.30;;;;;;6174796;28;83386;-62
2020/12/12 13:11:46;;;;;;;23.55;13.82;;;22.60;36.20;;;;;;6173722;28;84168;-60
2020/12/12 13:14:47;;;;;;;22.67;13.85;;;22.60;36.10;;;;;;6169989;28;83713;-63
2020/12/12 13:17:47;;;;;;;23.10;13.57;;;22.60;36.00;;;;;;6175417;28;83493;-62
2020/12/12 13:23:51;;;;;;;20.13;13.25;;;22.60;35.90;;;;;;6190446;28;83408;-62
2020/12/12 13:26:52;;;;;;;24.38;14.00;;;22.60;35.80;;;;;;6186194;28;83836;-63
2020/12/12 13:30:16;;;;;;;19.88;12.95;;;22.50;35.70;;;;;;6189208;27;83340;-64
2020/12/12 13:33:16;;;;;;;19.23;13.10;;;22.60;35.70;;;;;;6190743;28;83440;-64
2020/12/12 13:36:17;;;;;;;20.35;13.77;;;22.50;35.50;;;;;;6181526;28;83255;-63
2020/12/12 13:39:17;;;;;;;18.38;12.63;;;22.50;35.50;;;;;;6171460;28;84991;-63
2020/12/12 13:42:18;;;;;;;19.98;13.45;;;22.50;35.30;;;;;;6178369;28;84436;-61
2020/12/12 13:45:18;;;;;;;19.90;12.73;;;22.50;35.40;;;;;;6178136;28;83761;-65
2020/12/12 13:48:19;;;;;;;22.50;13.50;;;22.50;35.30;;;;;;6177220;28;83276;-65
2020/12/12 13:51:19;;;;;;;22.30;14.45;;;22.50;35.50;;;;;;6159903;28;84226;-65
2020/12/12 13:54:20;;;;;;;22.88;14.38;;;22.50;35.10;;;;;;6156325;28;83933;-65
2020/12/12 13:57:20;;;;;;;30.15;15.45;;;22.40;35.30;;;;;;6130864;28;83881;-64
2020/12/12 14:00:22;;;;;;;20.73;14.68;;;22.40;35.80;;;;;;6152988;28;83363;-63
2020/12/12 14:03:22;;;;;;;27.13;15.10;;;22.40;35.90;;;;;;6165568;28;83515;-62
2020/12/12 14:06:24;;;;;;;27.85;15.82;;;22.50;36.70;;;;;;6157462;28;83950;-61
2020/12/12 14:23:07;;;;;;;29.42;15.13;;;22.50;40.60;;;;;;6169816;28;83865;-62
2020/12/12 14:29:03;;;;;;;27.90;16.03;;;22.60;40.80;;;;;;6175714;27;83439;-59
2020/12/12 14:32:03;;;;;;;28.58;16.42;;;22.50;40.80;;;;;;6178384;28;83167;-58
2020/12/12 14:35:04;;;;;;;28.13;16.65;;;22.60;41.40;;;;;;6173657;28;84302;-60
2020/12/12 14:38:04;;;;;;;25.25;15.52;;;22.60;40.60;;;;;;6177145;27;83317;-57
2020/12/12 14:41:05;;;;;;;24.90;15.73;;;22.60;40.50;;;;;;6175933;28;83211;-58
2020/12/12 14:44:05;;;;;;;25.95;16.40;;;22.60;40.50;;;;;;6177218;28;83529;-57
2020/12/12 14:47:06;;;;;;;26.58;16.23;;;22.60;40.50;;;;;;6178302;28;83495;-57
2020/12/12 14:50:07;;;;;;;29.15;17.40;;;22.60;40.50;;;;;;6158411;28;86250;-56
2020/12/12 14:53:07;;;;;;;24.65;15.57;;;22.60;40.40;;;;;;6175452;27;83368;-57
2020/12/12 14:56:08;;;;;;;29.30;17.15;;;22.60;40.60;;;;;;6178099;28;84123;-56
2020/12/12 14:59:08;;;;;;;27.98;16.73;;;22.70;40.60;;;;;;6177021;27;84649;-57
2020/12/12 15:02:08;;;;;;;29.90;17.40;;;22.70;40.70;;;;;;6176173;28;84204;-56
2020/12/12 15:05:09;;;;;;;31.02;17.10;;;22.70;40.60;;;;;;6168502;27;83197;-54
2020/12/12 15:08:10;;;;;;;28.58;16.20;;;22.70;40.50;;;;;;6176514;28;83585;-57
2020/12/12 15:11:10;;;;;;;35.47;17.02;;;22.70;40.60;;;;;;6174790;28;83626;-59
2020/12/12 15:14:12;;;;;;;29.58;16.80;;;22.70;40.30;;;;;;6177414;27;83617;-56
2020/12/12 15:17:12;;;;;;;28.63;16.05;;;22.70;40.00;;;;;;6173816;28;83214;-56
2020/12/12 15:20:13;;;;;;;30.50;17.75;;;22.70;40.10;;;;;;6160286;27;86350;-57
2020/12/12 15:23:13;;;;;;;36.30;20.20;;;22.80;39.80;;;;;;6172549;28;84009;-57
2020/12/12 15:26:14;;;;;;;29.85;18.42;;;22.80;39.20;;;;;;6175043;28;85753;-57
2020/12/12 15:29:14;;;;;;;34.25;18.17;;;22.80;39.00;;;;;;6176926;28;82978;-56
2020/12/12 15:32:19;;;;;;;31.92;18.95;;;22.90;38.70;;;;;;6173756;27;84029;-56
2020/12/12 15:35:20;;;;;;;36.80;20.33;;;22.90;38.40;;;;;;6174798;28;85783;-56
2020/12/12 15:38:20;;;;;;;31.58;19.13;;;22.90;38.20;;;;;;6173417;27;83369;-56
2020/12/12 15:41:22;;;;;;;32.40;19.35;;;22.90;38.10;;;;;;6168001;28;83587;-57
2020/12/12 15:44:23;;;;;;;37.75;21.52;;;23.00;37.70;;;;;;6158883;27;85345;-54
2020/12/12 15:47:24;;;;;;;37.97;21.25;;;23.00;37.40;;;;;;6163854;28;83984;-52
2020/12/12 15:50:24;;;;;;;34.60;20.15;;;23.10;37.30;;;;;;6154644;27;83588;-54